createdAt,value
2023-04-25T00:01:48.483Z,100868.69
2023-04-25T00:04:16.157Z,100863.38
2023-04-25T00:06:43.782Z,100866.88
2023-04-25T00:09:12.391Z,100865.94
2023-04-25T00:11:41.634Z,100871.16
2023-04-25T00:14:08.886Z,100872.88
2023-04-25T00:16:36.673Z,100866.78
2023-04-25T00:19:06.803Z,100872.03
2023-04-25T00:21:34.553Z,100869.38
2023-04-25T00:24:02.101Z,100865.88
2023-04-25T00:26:29.429Z,100872.84
2023-04-25T00:28:56.789Z,100871.06
2023-04-25T00:31:24.145Z,100870.13
2023-04-25T00:33:51.826Z,100872.69
2023-04-25T00:36:19.686Z,100873.53
2023-04-25T00:38:46.884Z,100876.16
2023-04-25T00:41:14.756Z,100886.63
2023-04-25T00:43:43.048Z,100883.09
2023-04-25T00:46:10.745Z,100889.16
2023-04-25T00:48:38.148Z,100887.41
2023-04-25T00:51:06.048Z,100887.38
2023-04-25T00:53:34.579Z,100886.47
2023-04-25T00:56:01.855Z,100892.53
2023-04-25T00:58:29.256Z,100895.97
2023-04-25T01:00:57.337Z,100894.19
2023-04-25T01:03:25.493Z,100890.66
2023-04-25T01:05:53.175Z,100893.25
2023-04-25T01:08:25.317Z,100893.22
2023-04-25T01:10:52.770Z,100887.03
2023-04-25T01:13:20.979Z,100890.44
2023-04-25T01:15:49.208Z,100886.03
2023-04-25T01:18:17.754Z,100886.81
2023-04-25T01:20:46.350Z,100898.06
2023-04-25T01:23:14.589Z,100899.75
2023-04-25T01:25:42.851Z,100903.19
2023-04-25T01:28:10.638Z,100891.81
2023-04-25T01:30:38.656Z,100909.25
2023-04-25T01:33:07.533Z,100906.59
2023-04-25T01:35:35.099Z,100905.63
2023-04-25T01:38:02.920Z,100898.56
2023-04-25T01:40:31.329Z,100903.81
2023-04-25T01:42:58.613Z,100901.22
2023-04-25T01:45:26.583Z,100919.53
2023-04-25T01:47:54.852Z,100917.75
2023-04-25T01:50:22.270Z,100911.56
2023-04-25T01:52:50.679Z,100913.28
2023-04-25T01:55:18.471Z,100915.00
2023-04-25T01:58:04.211Z,100922.81
2023-04-25T02:00:50.989Z,100911.47
2023-04-25T02:03:18.837Z,100914.94
2023-04-25T02:05:46.697Z,100913.16
2023-04-25T02:08:15.425Z,100921.88
2023-04-25T02:10:42.962Z,100937.47
2023-04-25T02:13:19.116Z,100933.91
2023-04-25T02:16:15.164Z,100937.25
2023-04-25T02:18:42.586Z,100947.56
2023-04-25T02:21:10.000Z,100938.66
2023-04-25T02:23:37.507Z,100944.59
2023-04-25T02:26:04.859Z,100928.72
2023-04-25T02:28:32.358Z,100938.25
2023-04-25T02:31:01.896Z,100939.09
2023-04-25T02:33:29.237Z,100936.41
2023-04-25T02:35:58.747Z,100941.56
2023-04-25T02:38:26.332Z,100944.09
2023-04-25T02:40:53.783Z,100945.78
2023-04-25T02:43:21.736Z,100941.44
2023-04-25T02:45:48.989Z,100953.50
2023-04-25T02:48:16.312Z,100943.69
2023-04-25T02:50:43.667Z,100940.84
2023-04-25T02:53:10.937Z,100940.69
2023-04-25T02:55:45.573Z,100932.84
2023-04-25T02:58:12.866Z,100940.78
2023-04-25T03:00:47.303Z,100939.97
2023-04-25T03:03:16.108Z,100935.72
2023-04-25T03:05:43.554Z,100944.47
2023-04-25T03:08:10.982Z,100946.31
2023-04-25T03:10:39.956Z,100955.91
2023-04-25T03:13:10.671Z,100958.47
2023-04-25T03:15:40.874Z,100960.09
2023-04-25T03:18:08.296Z,100940.88
2023-04-25T03:20:35.779Z,100941.66
2023-04-25T03:23:04.866Z,100943.38
2023-04-25T03:25:32.767Z,100943.47
2023-04-25T03:28:00.123Z,100940.13
2023-04-25T03:30:27.492Z,100945.28
2023-04-25T03:32:54.858Z,100947.84
2023-04-25T03:35:22.233Z,100946.00
2023-04-25T03:37:49.533Z,100952.00
2023-04-25T03:40:22.220Z,100948.41
2023-04-25T03:43:09.759Z,100949.13
2023-04-25T03:45:38.444Z,100951.63
2023-04-25T03:48:06.293Z,100962.88
2023-04-25T03:50:34.518Z,100957.50
2023-04-25T03:53:01.837Z,100967.03
2023-04-25T03:55:34.505Z,100971.31
2023-04-25T03:58:02.182Z,100968.75
2023-04-25T04:00:29.491Z,100975.78
2023-04-25T04:02:57.069Z,100983.59
2023-04-25T04:05:24.634Z,100989.75
2023-04-25T04:07:56.473Z,100984.53
2023-04-25T04:10:24.296Z,100991.50
2023-04-25T04:12:51.672Z,100997.69
2023-04-25T04:15:19.243Z,100989.91
2023-04-25T04:17:48.959Z,101004.75
2023-04-25T04:20:16.413Z,101022.28
2023-04-25T04:22:43.856Z,101023.97
2023-04-25T04:25:14.050Z,101027.50
2023-04-25T04:28:04.545Z,101022.28
2023-04-25T04:30:53.546Z,101028.25
2023-04-25T04:33:20.859Z,101028.25
2023-04-25T04:35:54.494Z,101028.19
2023-04-25T04:38:22.958Z,101033.41
2023-04-25T04:40:54.762Z,101031.63
2023-04-25T04:43:38.155Z,101028.22
2023-04-25T04:46:25.838Z,101032.66
2023-04-25T04:49:13.515Z,101027.50
2023-04-25T04:52:07.422Z,101031.91
2023-04-25T04:54:52.862Z,101032.03
2023-04-25T04:57:36.221Z,101040.78
2023-04-25T05:00:17.070Z,101041.66
2023-04-25T05:02:45.176Z,101032.88
2023-04-25T05:05:41.004Z,101041.59
2023-04-25T05:08:26.539Z,101039.91
2023-04-25T05:11:12.195Z,101050.53
2023-04-25T05:14:18.042Z,101060.38
2023-04-25T05:16:59.490Z,101044.97
2023-04-25T05:19:47.166Z,101070.47
2023-04-25T05:22:25.424Z,101061.78
2023-04-25T05:25:28.654Z,101065.06
2023-04-25T05:28:09.236Z,101060.69
2023-04-25T05:30:42.449Z,101067.72
2023-04-25T05:33:17.611Z,101054.00
2023-04-25T05:35:46.376Z,101063.63
2023-04-25T05:38:13.739Z,101071.69
2023-04-25T05:41:01.643Z,101067.59
2023-04-25T05:43:40.401Z,101075.63
2023-04-25T05:46:21.661Z,101078.66
2023-04-25T05:49:08.053Z,101070.13
2023-04-25T05:52:13.645Z,101074.66
2023-04-25T05:54:41.022Z,101068.59
2023-04-25T05:57:08.486Z,101062.53
2023-04-25T05:59:36.106Z,101071.22
2023-04-25T06:02:03.848Z,101081.81
2023-04-25T06:04:35.826Z,101071.03
2023-04-25T06:07:03.479Z,101082.34
2023-04-25T06:09:31.134Z,101081.03
2023-04-25T06:11:59.482Z,101077.72
2023-04-25T06:14:28.958Z,101088.25
2023-04-25T06:16:57.185Z,101085.75
2023-04-25T06:19:24.453Z,101084.25
2023-04-25T06:21:51.860Z,101089.75
2023-04-25T06:24:20.768Z,101091.69
2023-04-25T06:26:48.797Z,101097.88
2023-04-25T06:29:16.502Z,101109.38
2023-04-25T06:31:44.253Z,101099.84
2023-04-25T06:34:11.817Z,101101.88
2023-04-25T06:36:42.520Z,101106.69
2023-04-25T06:39:12.983Z,101105.38
2023-04-25T06:41:42.332Z,101103.81
2023-04-25T06:44:27.161Z,101103.25
2023-04-25T06:46:54.434Z,101106.88
2023-04-25T06:49:21.892Z,101106.09
2023-04-25T06:51:49.205Z,101119.16
2023-04-25T06:54:16.642Z,101120.88
2023-04-25T06:56:54.716Z,101133.75
2023-04-25T06:59:22.392Z,101138.69
2023-04-25T07:01:49.648Z,101140.13
2023-04-25T07:04:20.560Z,101140.59
2023-04-25T07:06:55.816Z,101129.81
2023-04-25T07:09:49.609Z,101142.66
2023-04-25T07:12:16.900Z,101147.69
2023-04-25T07:14:45.055Z,101153.47
2023-04-25T07:17:12.983Z,101154.13
2023-04-25T07:19:41.034Z,101155.78
2023-04-25T07:22:09.463Z,101163.50
2023-04-25T07:24:40.454Z,101166.13
2023-04-25T07:27:08.846Z,101165.97
2023-04-25T07:29:56.749Z,101165.25
2023-04-25T07:32:24.838Z,101163.75
2023-04-25T07:34:52.453Z,101169.25
2023-04-25T07:37:22.772Z,101167.81
2023-04-25T07:40:02.739Z,101156.72
2023-04-25T07:42:30.449Z,101164.94
2023-04-25T07:44:58.143Z,101175.69
2023-04-25T07:47:25.760Z,101168.06
2023-04-25T07:49:54.010Z,101177.75
2023-04-25T07:52:22.588Z,101175.41
2023-04-25T07:54:54.940Z,101184.25
2023-04-25T07:57:30.297Z,101175.72
2023-04-25T07:59:58.633Z,101172.38
2023-04-25T08:02:29.381Z,101177.00
2023-04-25T08:04:57.034Z,101180.81
2023-04-25T08:07:24.418Z,101180.25
2023-04-25T08:09:56.010Z,101184.03
2023-04-25T08:12:27.808Z,101193.94
2023-04-25T08:14:55.199Z,101194.78
2023-04-25T08:17:24.982Z,101208.59
2023-04-25T08:19:53.117Z,101203.09
2023-04-25T08:22:27.104Z,101210.81
2023-04-25T08:25:07.011Z,101221.06
2023-04-25T08:27:34.425Z,101222.69
2023-04-25T08:30:04.635Z,101218.34
2023-04-25T08:32:32.113Z,101215.97
2023-04-25T08:35:18.499Z,101235.25
2023-04-25T08:37:46.376Z,101228.34
2023-04-25T08:40:16.604Z,101224.97
2023-04-25T08:42:57.937Z,101237.31
2023-04-25T08:45:28.385Z,101238.44
2023-04-25T08:47:58.211Z,101242.13
2023-04-25T08:50:27.422Z,101246.72
2023-04-25T08:52:56.338Z,101238.16
2023-04-25T08:55:27.743Z,101243.59
2023-04-25T08:57:59.587Z,101251.47
2023-04-25T09:00:27.373Z,101260.25
2023-04-25T09:02:56.239Z,101261.81
2023-04-25T09:05:24.300Z,101260.72
2023-04-25T09:07:54.053Z,101257.28
2023-04-25T09:10:21.335Z,101267.81
2023-04-25T09:13:18.689Z,101267.06
2023-04-25T09:16:11.733Z,101275.84
2023-04-25T09:18:49.205Z,101282.66
2023-04-25T09:21:17.483Z,101283.38
2023-04-25T09:23:49.423Z,101284.16
2023-04-25T09:26:20.043Z,101291.09
2023-04-25T09:28:51.249Z,101280.84
2023-04-25T09:31:25.658Z,101271.56
2023-04-25T09:34:02.859Z,101294.53
2023-04-25T09:36:38.244Z,101290.84
2023-04-25T09:39:22.476Z,101310.59
2023-04-25T09:42:00.910Z,101300.72
2023-04-25T09:44:28.301Z,101299.00
2023-04-25T09:46:56.440Z,101306.97
2023-04-25T09:49:30.342Z,101297.34
2023-04-25T09:52:20.957Z,101307.06
2023-04-25T09:55:05.236Z,101309.91
2023-04-25T09:57:40.802Z,101310.13
2023-04-25T10:00:13.300Z,101313.63
2023-04-25T10:02:49.232Z,101332.06
2023-04-25T10:05:36.892Z,101317.25
2023-04-25T10:08:05.643Z,101324.31
2023-04-25T10:10:37.278Z,101327.94
2023-04-25T10:13:06.247Z,101335.88
2023-04-25T10:15:38.305Z,101335.84
2023-04-25T10:18:08.167Z,101331.47
2023-04-25T10:20:36.005Z,101338.47
2023-04-25T10:23:15.891Z,101354.00
2023-04-25T10:25:44.260Z,101352.00
2023-04-25T10:28:11.558Z,101371.00
2023-04-25T10:30:38.792Z,101360.34
2023-04-25T10:33:19.664Z,101357.97
2023-04-25T10:35:46.979Z,101356.63
2023-04-25T10:38:17.295Z,101355.22
2023-04-25T10:41:04.970Z,101372.94
2023-04-25T10:43:32.248Z,101357.19
2023-04-25T10:46:03.493Z,101372.16
2023-04-25T10:48:32.132Z,101353.84
2023-04-25T10:51:12.991Z,101358.34
2023-04-25T10:53:40.328Z,101356.50
2023-04-25T10:56:36.902Z,101366.13
2023-04-25T10:59:20.309Z,101369.59
2023-04-25T11:01:52.848Z,101365.09
2023-04-25T11:04:25.507Z,101361.69
2023-04-25T11:07:27.203Z,101367.75
2023-04-25T11:09:54.619Z,101371.94
2023-04-25T11:12:21.947Z,101374.50
2023-04-25T11:14:49.300Z,101372.56
2023-04-25T11:17:16.576Z,101379.56
2023-04-25T11:19:44.046Z,101383.19
2023-04-25T11:22:11.952Z,101382.16
2023-04-25T11:24:42.198Z,101376.97
2023-04-25T11:27:10.410Z,101384.00
2023-04-25T11:29:37.893Z,101376.97
2023-04-25T11:32:05.439Z,101384.88
2023-04-25T11:34:34.344Z,101390.78
2023-04-25T11:37:03.587Z,101387.41
2023-04-25T11:39:31.609Z,101384.25
2023-04-25T11:41:59.878Z,101387.09
2023-04-25T11:44:29.468Z,101398.69
2023-04-25T11:46:56.801Z,101395.94
2023-04-25T11:49:25.879Z,101418.53
2023-04-25T11:51:53.522Z,101420.56
2023-04-25T11:54:20.835Z,101419.13
2023-04-25T11:56:48.302Z,101413.41
2023-04-25T11:59:16.049Z,101409.69
2023-04-25T12:01:51.041Z,101425.47
2023-04-25T12:04:25.959Z,101441.16
2023-04-25T12:06:54.948Z,101451.38
2023-04-25T12:09:30.134Z,101443.97
2023-04-25T12:11:59.518Z,101449.50
2023-04-25T12:14:28.527Z,101447.53
2023-04-25T12:16:58.844Z,101437.31
2023-04-25T12:19:27.335Z,101435.97
2023-04-25T12:21:58.725Z,101448.75
2023-04-25T12:24:28.767Z,101448.41
2023-04-25T12:27:09.940Z,101441.03
2023-04-25T12:32:07.388Z,101438.25
2023-04-25T12:34:37.089Z,101434.72
2023-04-25T12:37:04.683Z,101444.19
2023-04-25T12:39:31.928Z,101442.38
2023-04-25T12:42:00.189Z,101440.91
2023-04-25T12:44:28.193Z,101443.06
2023-04-25T12:46:56.046Z,101441.47
2023-04-25T12:49:23.583Z,101445.06
2023-04-25T12:51:52.554Z,101443.31
2023-04-25T12:54:19.957Z,101441.69
2023-04-25T12:56:47.406Z,101452.28
2023-04-25T12:59:14.640Z,101458.44
2023-04-25T13:01:42.140Z,101460.06
2023-04-25T13:04:09.636Z,101489.66
2023-04-25T13:06:37.258Z,101496.00
2023-04-25T13:09:04.852Z,101480.13
2023-04-25T13:11:32.423Z,101479.19
2023-04-25T13:13:59.794Z,101482.44
2023-04-25T13:16:27.187Z,101485.72
2023-04-25T13:18:54.675Z,101463.94
2023-04-25T13:21:21.952Z,101473.94
2023-04-25T13:23:49.517Z,101462.00
2023-04-25T13:26:17.613Z,101474.59
2023-04-25T13:28:45.138Z,101466.91
2023-04-25T13:31:12.557Z,101461.84
2023-04-25T13:33:39.870Z,101468.81
2023-04-25T13:36:10.266Z,101466.34
2023-04-25T13:38:37.699Z,101475.44
2023-04-25T13:41:05.013Z,101481.78
2023-04-25T13:43:33.194Z,101475.81
2023-04-25T13:46:00.510Z,101470.66
2023-04-25T13:48:27.789Z,101470.75
2023-04-25T13:50:55.015Z,101489.22
2023-04-25T13:53:22.332Z,101479.59
2023-04-25T13:55:49.676Z,101489.25
2023-04-25T13:58:17.074Z,101488.50
2023-04-25T14:00:46.961Z,101496.13
2023-04-25T14:03:14.355Z,101496.75
2023-04-25T14:05:42.020Z,101499.97
2023-04-25T14:08:10.593Z,101494.47
2023-04-25T14:10:39.296Z,101487.34
2023-04-25T14:13:08.319Z,101489.00
2023-04-25T14:15:36.820Z,101487.41
2023-04-25T14:18:04.277Z,101494.75
2023-04-25T14:20:32.673Z,101506.47
2023-04-25T14:22:59.903Z,101488.25
2023-04-25T14:25:27.400Z,101509.31
2023-04-25T14:27:54.643Z,101501.41
2023-04-25T14:30:22.784Z,101504.25
2023-04-25T14:32:51.153Z,101509.50
2023-04-25T14:35:18.732Z,101512.19
2023-04-25T14:37:46.142Z,101522.94
2023-04-25T14:40:16.237Z,101502.81
2023-04-25T14:42:43.581Z,101526.56
2023-04-25T14:45:11.144Z,101523.03
2023-04-25T14:47:38.560Z,101519.41
2023-04-25T14:50:07.337Z,101521.25
2023-04-25T14:52:34.625Z,101523.09
2023-04-25T14:55:06.106Z,101524.81
2023-04-25T14:57:34.403Z,101532.53
2023-04-25T15:00:02.804Z,101530.53
2023-04-25T15:02:30.226Z,101528.53
2023-04-25T15:04:57.685Z,101530.03
2023-04-25T15:07:25.685Z,101536.06
2023-04-25T15:09:54.433Z,101528.06
2023-04-25T15:12:21.746Z,101528.94
2023-04-25T15:14:48.999Z,101540.41
2023-04-25T15:17:16.540Z,101537.09
2023-04-25T15:19:43.918Z,101538.81
2023-04-25T15:22:11.748Z,101540.56
2023-04-25T15:24:39.196Z,101539.75
2023-04-25T15:27:07.082Z,101543.88
2023-04-25T15:29:34.501Z,101549.81
2023-04-25T15:32:02.066Z,101547.84
2023-04-25T15:34:29.378Z,101554.72
2023-04-25T15:36:57.543Z,101555.63
2023-04-25T15:39:24.901Z,101551.97
2023-04-25T15:41:52.648Z,101555.34
2023-04-25T15:44:20.421Z,101550.84
2023-04-25T15:46:49.045Z,101558.53
2023-04-25T15:49:16.853Z,101555.66
2023-04-25T15:51:45.024Z,101560.69
2023-04-25T15:54:12.397Z,101557.16
2023-04-25T15:56:39.965Z,101553.75
2023-04-25T15:59:07.594Z,101554.00
2023-04-25T16:01:36.795Z,101555.13
2023-04-25T16:04:04.214Z,101547.47
2023-04-25T16:06:33.384Z,101561.44
2023-04-25T16:09:00.635Z,101549.13
2023-04-25T16:11:27.995Z,101557.97
2023-04-25T16:13:55.269Z,101561.56
2023-04-25T16:16:22.631Z,101561.50
2023-04-25T16:18:50.345Z,101560.53
2023-04-25T16:21:17.645Z,101573.50
2023-04-25T16:23:45.239Z,101571.63
2023-04-25T16:26:14.008Z,101561.91
2023-04-25T16:28:44.105Z,101565.38
2023-04-25T16:31:11.607Z,101565.19
2023-04-25T16:33:39.000Z,101568.53
2023-04-25T16:36:07.232Z,101571.81
2023-04-25T16:38:34.760Z,101568.91
2023-04-25T16:41:02.040Z,101580.00
2023-04-25T16:43:29.411Z,101577.09
2023-04-25T16:45:56.675Z,101574.41
2023-04-25T16:48:24.628Z,101579.56
2023-04-25T16:50:52.824Z,101587.53
2023-04-25T16:53:22.236Z,101590.22
2023-04-25T16:55:50.011Z,101577.03
2023-04-25T16:58:17.639Z,101580.41
2023-04-25T17:00:45.506Z,101583.75
2023-04-25T17:03:13.457Z,101586.22
2023-04-25T17:05:40.865Z,101592.19
2023-04-25T17:08:08.361Z,101591.22
2023-04-25T17:10:35.924Z,101590.09
2023-04-25T17:13:03.441Z,101596.06
2023-04-25T17:18:00.447Z,101598.34
2023-04-25T17:20:27.792Z,101600.81
2023-04-25T17:22:55.013Z,101621.56
2023-04-25T17:25:22.558Z,101630.88
2023-04-25T17:27:49.780Z,101643.28
2023-04-25T17:30:17.383Z,101645.06
2023-04-25T17:32:44.728Z,101628.69
2023-04-25T17:35:12.090Z,101624.75
2023-04-25T17:37:40.826Z,101629.06
2023-04-25T17:40:12.089Z,101622.09
2023-04-25T17:42:40.552Z,101617.78
2023-04-25T17:45:08.417Z,101616.91
2023-04-25T17:47:35.758Z,101618.72
2023-04-25T17:50:04.657Z,101619.66
2023-04-25T17:52:40.681Z,101620.53
2023-04-25T17:55:08.905Z,101623.09
2023-04-25T17:57:36.610Z,101617.84
2023-04-25T18:00:07.791Z,101622.16
2023-04-25T18:02:40.607Z,101627.38
2023-04-25T18:05:11.287Z,101630.84
2023-04-25T18:07:38.580Z,101629.00
2023-04-25T18:10:06.810Z,101621.91
2023-04-25T18:12:34.419Z,101633.22
2023-04-25T18:15:02.098Z,101640.09
2023-04-25T18:17:29.461Z,101639.22
2023-04-25T18:19:56.776Z,101640.06
2023-04-25T18:22:23.980Z,101647.75
2023-04-25T18:24:51.427Z,101645.94
2023-04-25T18:27:20.942Z,101644.06
2023-04-25T18:29:48.171Z,101650.91
2023-04-25T18:32:15.511Z,101653.41
2023-04-25T18:34:45.317Z,101660.25
2023-04-25T18:37:14.272Z,101663.56
2023-04-25T18:39:41.807Z,101665.25
2023-04-25T18:42:09.103Z,101659.13
2023-04-25T18:44:42.682Z,101662.63
2023-04-25T18:47:10.849Z,101664.38
2023-04-25T18:49:38.809Z,101665.13
2023-04-25T18:52:11.819Z,101664.25
2023-04-25T18:54:39.549Z,101669.34
2023-04-25T18:57:06.810Z,101675.38
2023-04-25T18:59:34.088Z,101680.47
2023-04-25T19:02:05.660Z,101678.59
2023-04-25T19:04:33.348Z,101688.13
2023-04-25T19:07:00.971Z,101683.50
2023-04-25T19:09:28.269Z,101681.59
2023-04-25T19:11:55.813Z,101684.81
2023-04-25T19:14:23.236Z,101683.84
2023-04-25T19:16:50.547Z,101689.75
2023-04-25T19:19:17.781Z,101692.22
2023-04-25T19:21:45.061Z,101700.72
2023-04-25T19:24:12.281Z,101696.16
2023-04-25T19:26:39.872Z,101697.81
2023-04-25T19:29:08.176Z,101698.59
2023-04-25T19:31:37.465Z,101701.03
2023-04-25T19:34:06.183Z,101717.41
2023-04-25T19:36:34.533Z,101707.78
2023-04-25T19:39:05.514Z,101706.00
2023-04-25T19:41:38.247Z,101697.16
2023-04-25T19:44:08.402Z,101703.16
2023-04-25T19:46:37.251Z,101694.34
2023-04-25T19:49:07.845Z,101702.09
2023-04-25T19:51:36.616Z,101699.47
2023-04-25T19:54:04.373Z,101700.22
2023-04-25T19:56:32.644Z,101702.81
2023-04-25T19:58:59.889Z,101700.19
2023-04-25T20:01:27.201Z,101701.84
2023-04-25T20:03:54.775Z,101696.50
2023-04-25T20:06:22.533Z,101711.16
2023-04-25T20:08:53.147Z,101710.91
2023-04-25T20:11:21.586Z,101709.00
2023-04-25T20:13:49.074Z,101713.09
2023-04-25T20:16:20.164Z,101716.41
2023-04-25T20:18:48.810Z,101718.81
2023-04-25T20:21:17.027Z,101730.91
2023-04-25T20:23:44.641Z,101727.28
2023-04-25T20:26:12.903Z,101719.41
2023-04-25T20:28:42.080Z,101714.13
2023-04-25T20:31:10.899Z,101719.19
2023-04-25T20:33:38.806Z,101714.59
2023-04-25T20:36:06.283Z,101716.34
2023-04-25T20:38:33.756Z,101720.59
2023-04-25T20:41:01.211Z,101720.47
2023-04-25T20:43:29.276Z,101711.69
2023-04-25T20:45:57.346Z,101716.66
2023-04-25T20:48:24.581Z,101710.47
2023-04-25T20:50:52.470Z,101718.22
2023-04-25T20:53:20.261Z,101714.81
2023-04-25T20:55:48.774Z,101709.53
2023-04-25T20:58:16.296Z,101699.81
2023-04-25T21:00:43.953Z,101709.38
2023-04-25T21:03:12.013Z,101711.03
2023-04-25T21:05:39.602Z,101717.91
2023-04-25T21:08:06.966Z,101710.00
2023-04-25T21:10:36.172Z,101707.31
2023-04-25T21:13:05.092Z,101712.44
2023-04-25T21:15:32.332Z,101709.75
2023-04-25T21:17:59.774Z,101711.53
2023-04-25T21:20:27.106Z,101714.09
2023-04-25T21:22:54.588Z,101718.47
2023-04-25T21:25:29.330Z,101708.97
2023-04-25T21:27:57.867Z,101715.16
2023-04-25T21:30:25.924Z,101716.06
2023-04-25T21:32:53.605Z,101719.56
2023-04-25T21:35:22.586Z,101722.25
2023-04-25T21:37:50.623Z,101717.03
2023-04-25T21:40:18.512Z,101715.28
2023-04-25T21:42:49.923Z,101715.28
2023-04-25T21:45:18.451Z,101729.22
2023-04-25T21:47:47.722Z,101720.59
2023-04-25T21:50:15.510Z,101726.75
2023-04-25T21:52:42.766Z,101732.88
2023-04-25T21:55:10.879Z,101736.34
2023-04-25T21:57:38.059Z,101741.72
2023-04-25T22:00:20.306Z,101743.56
2023-04-25T22:02:55.532Z,101747.00
2023-04-25T22:05:26.540Z,101740.75
2023-04-25T22:07:57.014Z,101725.03
2023-04-25T22:10:25.217Z,101716.31
2023-04-25T22:12:52.958Z,101721.72
2023-04-25T22:15:24.152Z,101723.59
2023-04-25T22:17:52.498Z,101732.44
2023-04-25T22:20:22.815Z,101724.66
2023-04-25T22:22:50.415Z,101730.78
2023-04-25T22:25:18.028Z,101739.44
2023-04-25T22:27:45.292Z,101749.06
2023-04-25T22:30:15.407Z,101760.16
2023-04-25T22:32:43.446Z,101746.16
2023-04-25T22:35:11.694Z,101739.81
2023-04-25T22:37:39.148Z,101740.53
2023-04-25T22:40:07.245Z,101730.06
2023-04-25T22:42:42.179Z,101739.47
2023-04-25T22:45:10.827Z,101735.84
2023-04-25T22:47:39.385Z,101737.59
2023-04-25T22:50:12.505Z,101726.28
2023-04-25T22:52:39.812Z,101743.66
2023-04-25T22:55:07.299Z,101735.63
2023-04-25T22:57:37.546Z,101736.53
2023-04-25T23:00:10.812Z,101741.59
2023-04-25T23:02:39.875Z,101748.41
2023-04-25T23:05:08.013Z,101746.69
2023-04-25T23:07:35.320Z,101744.84
2023-04-25T23:10:02.632Z,101741.97
2023-04-25T23:12:29.827Z,101746.06
2023-04-25T23:14:57.330Z,101751.97
2023-04-25T23:17:24.542Z,101749.09
2023-04-25T23:19:51.728Z,101755.66
2023-04-25T23:22:19.287Z,101753.63
2023-04-25T23:24:46.582Z,101761.06
2023-04-25T23:27:13.907Z,101758.25
2023-04-25T23:29:41.388Z,101758.72
2023-04-25T23:32:12.671Z,101760.22
2023-04-25T23:34:39.922Z,101764.41
2023-04-25T23:37:07.195Z,101772.06
2023-04-25T23:39:34.643Z,101763.34
2023-04-25T23:42:01.862Z,101762.47
2023-04-25T23:44:29.055Z,101765.09
2023-04-25T23:46:56.285Z,101770.28
2023-04-25T23:49:23.537Z,101767.72
2023-04-25T23:51:50.790Z,101761.63
2023-04-25T23:54:17.961Z,101766.84
2023-04-25T23:56:45.262Z,101766.84
2023-04-25T23:59:12.523Z,101770.34
